Time;durP1;ratioP1;P1;durP2;ratioP2;P2;SDS_P1;SDS_P2;PMS_P1;PMS_P2;Temp;Humidity;BMP_temperature;BMP_pressure;BME280_temperature;BME280_humidity;BME280_pressure;Samples;Min_cycle;Max_cycle;Signal;HPM_P1;HPM_P2
2020/12/30 00:00:55;;;;;;;17.03;8.67;;;;;;;1.77;95.39;98871.22;5153013;27;20457;-53
2020/12/30 00:03:22;;;;;;;37.00;14.90;;;;;;;1.73;95.36;98865.13;5155930;27;20529;-56
2020/12/30 00:05:48;;;;;;;52.72;21.23;;;;;;;1.86;95.30;98863.16;5154918;27;20464;-55
2020/12/30 00:08:15;;;;;;;34.17;13.88;;;;;;;1.79;94.98;98867.09;5156836;27;20230;-59
2020/12/30 00:10:42;;;;;;;41.72;17.73;;;;;;;1.90;95.32;98867.59;5150666;27;20233;-56
2020/12/30 00:13:10;;;;;;;27.33;9.32;;;;;;;1.98;95.20;98871.38;5156718;27;20213;-53
2020/12/30 00:15:37;;;;;;;19.80;8.27;;;;;;;2.00;94.98;98864.66;5153626;27;20230;-57
2020/12/30 00:18:04;;;;;;;28.40;10.47;;;;;;;1.95;94.82;98868.66;5156468;27;20878;-58
2020/12/30 00:20:30;;;;;;;74.45;25.25;;;;;;;1.94;94.74;98869.47;5154924;27;20894;-58
2020/12/30 00:22:57;;;;;;;36.45;13.15;;;;;;;1.93;94.84;98875.34;5156078;27;20301;-57
2020/12/30 00:25:25;;;;;;;46.92;20.00;;;;;;;1.99;94.72;98878.19;5154478;27;20239;-55
2020/12/30 00:27:53;;;;;;;39.13;17.03;;;;;;;2.07;94.56;98880.22;5155893;27;20213;-56
2020/12/30 00:30:20;;;;;;;38.15;15.60;;;;;;;2.07;94.42;98880.22;5154529;27;20474;-57
2020/12/30 00:32:47;;;;;;;47.50;18.83;;;;;;;2.13;94.12;98885.56;5155490;27;20251;-59
2020/12/30 00:35:16;;;;;;;33.23;15.07;;;;;;;2.08;93.83;98877.75;5154118;27;20478;-59
2020/12/30 00:37:43;;;;;;;48.40;19.73;;;;;;;2.00;94.32;98874.84;5155907;27;20464;-60
2020/12/30 00:40:11;;;;;;;43.80;19.17;;;;;;;2.02;94.03;98873.22;5152545;27;20558;-60
2020/12/30 00:42:39;;;;;;;41.13;18.33;;;;;;;2.10;94.09;98877.81;5155710;27;20500;-61
2020/12/30 00:45:08;;;;;;;49.03;20.65;;;;;;;2.04;94.30;98875.00;5153651;27;20485;-60
2020/12/30 00:47:34;;;;;;;45.90;19.10;;;;;;;2.08;94.14;98879.41;5156073;27;20216;-60
2020/12/30 00:50:01;;;;;;;37.40;11.23;;;;;;;2.05;93.96;98886.91;5153759;27;20246;-60
2020/12/30 00:52:28;;;;;;;35.73;14.40;;;;;;;2.06;94.26;98878.47;5155923;27;20463;-60
2020/12/30 00:54:54;;;;;;;32.95;12.55;;;;;;;2.05;94.33;98884.38;5154303;27;20785;-59
2020/12/30 00:57:21;;;;;;;24.30;10.03;;;;;;;2.03;94.31;98891.91;5155311;27;20312;-61
2020/12/30 00:59:48;;;;;;;26.90;12.40;;;;;;;2.10;94.11;98895.63;5154226;27;20505;-60
2020/12/30 01:02:15;;;;;;;35.70;14.40;;;;;;;2.09;94.42;98894.75;5155845;27;20467;-59
2020/12/30 01:04:42;;;;;;;24.90;9.37;;;;;;;2.06;94.63;98903.91;5153415;27;20458;-60
2020/12/30 01:07:09;;;;;;;26.77;11.13;;;;;;;2.08;94.32;98899.75;5155613;27;20461;-60
2020/12/30 01:09:35;;;;;;;47.27;19.50;;;;;;;2.11;94.30;98899.91;5154196;27;20540;-61
2020/12/30 01:12:04;;;;;;;55.43;19.33;;;;;;;2.08;94.10;98900.63;5155338;27;20553;-59
2020/12/30 01:14:31;;;;;;;38.40;14.10;;;;;;;2.09;94.24;98904.03;5154086;27;20433;-60
2020/12/30 01:16:58;;;;;;;54.73;21.00;;;;;;;2.13;93.95;98900.84;5155511;27;20463;-60
2020/12/30 01:19:25;;;;;;;51.00;20.00;;;;;;;2.14;93.59;98908.56;5153760;27;20450;-60
2020/12/30 01:21:53;;;;;;;55.40;20.63;;;;;;;2.16;93.49;98912.03;5156045;27;20470;-61
2020/12/30 01:24:19;;;;;;;25.87;8.43;;;;;;;2.18;93.60;98914.66;5153920;27;20466;-61
2020/12/30 01:26:46;;;;;;;68.77;29.13;;;;;;;2.17;93.49;98915.47;5155147;27;20570;-60
2020/12/30 01:29:13;;;;;;;63.57;21.10;;;;;;;2.20;93.53;98919.81;5154082;27;21033;-60
2020/12/30 01:31:40;;;;;;;69.33;28.33;;;;;;;2.21;93.57;98926.66;5154570;27;20876;-61
2020/12/30 01:34:07;;;;;;;40.60;17.50;;;;;;;2.20;93.68;98925.75;5154055;27;20565;-61
2020/12/30 01:36:35;;;;;;;23.07;10.07;;;;;;;2.18;93.35;98932.47;5155420;27;21132;-61
2020/12/30 01:39:04;;;;;;;28.73;11.53;;;;;;;2.08;93.77;98928.63;5153723;27;20494;-60
2020/12/30 01:41:31;;;;;;;28.80;12.17;;;;;;;2.19;93.59;98931.66;5154783;27;20460;-60
2020/12/30 01:43:59;;;;;;;51.80;16.00;;;;;;;2.16;93.23;98932.38;5153915;27;20494;-60
2020/12/30 01:46:37;;;;;;;54.97;21.67;;;;;;;2.22;92.85;98942.00;5157180;27;20479;-61
2020/12/30 01:49:06;;;;;;;47.77;17.80;;;;;;;2.21;92.63;98939.38;5157713;27;20490;-60
2020/12/30 01:51:33;;;;;;;50.40;20.77;;;;;;;2.21;92.77;98937.69;5158949;27;20482;-60
2020/12/30 01:54:02;;;;;;;29.10;12.30;;;;;;;2.17;92.24;98938.38;5157461;27;20470;-61
2020/12/30 01:56:31;;;;;;;45.83;18.60;;;;;;;2.17;92.34;98938.38;5159126;27;20561;-61
2020/12/30 01:58:58;;;;;;;34.57;14.97;;;;;;;2.19;91.85;98941.00;5157637;27;20523;-60
2020/12/30 02:01:29;;;;;;;40.00;16.87;;;;;;;2.20;91.79;98948.66;5158380;27;20685;-61
2020/12/30 02:03:58;;;;;;;52.45;23.60;;;;;;;2.23;92.33;98946.28;5158422;27;20474;-60
2020/12/30 02:06:25;;;;;;;40.60;15.87;;;;;;;2.15;92.23;98950.13;5158433;27;20292;-60
2020/12/30 02:08:52;;;;;;;58.00;24.40;;;;;;;2.22;91.91;98939.44;5158722;27;20518;-60
2020/12/30 02:11:24;;;;;;;36.30;17.67;;;;;;;2.20;92.12;98946.13;5157467;27;20516;-61
2020/12/30 02:14:06;;;;;;;64.97;26.63;;;;;;;2.20;92.10;98953.75;5158420;27;20469;-60
2020/12/30 02:16:34;;;;;;;42.10;16.80;;;;;;;2.27;92.30;98949.84;5157780;27;20432;-60
2020/12/30 02:19:00;;;;;;;51.23;21.23;;;;;;;2.22;92.17;98956.38;5155120;27;20461;-60
2020/12/30 02:21:27;;;;;;;58.90;22.40;;;;;;;2.21;92.04;98947.88;5158958;27;20820;-61
2020/12/30 02:23:55;;;;;;;30.00;13.43;;;;;;;2.20;92.08;98950.38;5158528;27;20538;-61
2020/12/30 02:26:22;;;;;;;50.73;18.83;;;;;;;2.22;92.11;98952.19;5157715;27;20469;-61
2020/12/30 02:28:49;;;;;;;53.13;20.50;;;;;;;2.20;92.14;98953.75;5158675;27;20484;-61
2020/12/30 02:31:15;;;;;;;61.40;23.30;;;;;;;2.24;91.77;98945.47;5156311;27;20517;-61
2020/12/30 02:33:42;;;;;;;47.40;19.40;;;;;;;2.22;91.89;98956.38;5158730;27;20466;-61
2020/12/30 02:36:09;;;;;;;39.60;16.17;;;;;;;2.18;91.81;98950.28;5156492;27;20554;-60
2020/12/30 02:38:35;;;;;;;46.47;20.30;;;;;;;2.27;92.12;98960.88;5158021;27;20474;-61
2020/12/30 02:41:04;;;;;;;54.17;23.50;;;;;;;2.22;91.71;98959.81;5150073;27;20485;-60
2020/12/30 02:43:32;;;;;;;31.13;13.40;;;;;;;2.22;91.42;98957.28;5156751;27;20559;-60
2020/12/30 02:45:58;;;;;;;37.93;16.27;;;;;;;2.17;91.70;98961.28;5154929;27;20479;-61
2020/12/30 02:48:25;;;;;;;24.07;9.40;;;;;;;2.20;91.58;98965.63;5156805;27;20947;-61
2020/12/30 02:50:53;;;;;;;40.47;15.43;;;;;;;2.16;91.44;98956.97;5155731;27;20928;-61
2020/12/30 02:53:20;;;;;;;26.43;12.57;;;;;;;2.20;91.60;98958.84;5156827;27;21088;-60
2020/12/30 02:55:47;;;;;;;43.80;21.07;;;;;;;2.20;91.39;98950.38;5155694;27;20506;-60
2020/12/30 02:58:14;;;;;;;59.90;24.93;;;;;;;2.20;91.44;98969.03;5157400;27;20531;-60
2020/12/30 03:00:41;;;;;;;48.90;18.57;;;;;;;2.15;91.54;98960.31;5154904;27;20518;-60
2020/12/30 03:03:08;;;;;;;40.30;16.43;;;;;;;2.19;91.47;98971.53;5157307;27;20973;-59
2020/12/30 03:05:35;;;;;;;30.40;12.53;;;;;;;2.18;91.37;98960.47;5154424;27;20479;-60
2020/12/30 03:08:01;;;;;;;28.50;13.43;;;;;;;2.19;91.33;98967.28;5157156;27;20542;-60
2020/12/30 03:10:28;;;;;;;30.93;12.80;;;;;;;2.19;90.60;98968.97;5154905;27;20562;-60
2020/12/30 03:12:55;;;;;;;24.43;10.57;;;;;;;2.20;91.00;98963.09;5156615;27;20442;-60
2020/12/30 03:15:21;;;;;;;28.97;14.17;;;;;;;2.20;90.77;98961.41;5155124;27;20560;-61
2020/12/30 03:17:49;;;;;;;26.17;11.63;;;;;;;2.19;90.76;98967.28;5157094;27;20463;-60
2020/12/30 03:20:15;;;;;;;42.07;13.70;;;;;;;2.17;91.17;98976.53;5154757;27;20801;-61
2020/12/30 03:22:42;;;;;;;29.60;13.13;;;;;;;2.18;90.80;98975.72;5156602;27;20577;-60
2020/12/30 03:25:09;;;;;;;43.00;20.27;;;;;;;2.16;90.89;98967.16;5154106;27;20561;-60
2020/12/30 03:27:36;;;;;;;43.73;19.83;;;;;;;2.24;90.78;98975.13;5150296;27;20486;-61
2020/12/30 03:30:03;;;;;;;26.77;12.40;;;;;;;2.13;90.73;98969.53;5157139;27;20483;-61
2020/12/30 03:32:30;;;;;;;36.40;14.83;;;;;;;2.13;90.89;98972.09;5144943;27;20479;-60
2020/12/30 03:34:57;;;;;;;25.67;10.37;;;;;;;2.14;90.71;98974.72;5136041;27;20484;-60
2020/12/30 03:37:24;;;;;;;26.97;11.47;;;;;;;2.14;90.75;98973.84;5138255;27;20453;-61
2020/12/30 03:39:50;;;;;;;20.00;10.17;;;;;;;2.11;90.99;98971.16;5136541;27;20469;-61
2020/12/30 03:42:17;;;;;;;35.47;16.33;;;;;;;2.16;90.78;98972.25;5138006;27;20459;-61
2020/12/30 03:44:44;;;;;;;24.97;11.07;;;;;;;2.16;90.64;98970.56;5136003;27;20480;-61
2020/12/30 03:47:10;;;;;;;35.13;15.70;;;;;;;2.12;90.87;98983.97;5138072;27;20486;-60
2020/12/30 03:49:37;;;;;;;26.23;11.90;;;;;;;2.13;90.42;98984.81;5152461;27;20475;-62
2020/12/30 03:52:04;;;;;;;31.53;9.00;;;;;;;2.15;90.82;98973.03;5158808;27;20448;-61
2020/12/30 03:54:31;;;;;;;36.83;17.47;;;;;;;2.18;90.43;98988.44;5156539;27;20471;-60
2020/12/30 03:56:58;;;;;;;36.70;16.03;;;;;;;2.19;90.67;98985.09;5158550;27;20454;-61
2020/12/30 03:59:24;;;;;;;18.70;7.80;;;;;;;2.14;90.40;98989.97;5155869;27;20450;-61
2020/12/30 04:01:51;;;;;;;35.50;15.83;;;;;;;2.14;90.50;98989.09;5154925;27;20916;-61
2020/12/30 04:04:18;;;;;;;39.27;17.87;;;;;;;2.14;90.39;98989.09;5154217;27;20446;-60
2020/12/30 04:06:44;;;;;;;31.75;14.40;;;;;;;2.16;90.20;98987.53;5155755;27;20932;-61
2020/12/30 04:09:12;;;;;;;15.80;7.07;;;;;;;2.18;89.87;98985.91;5153446;27;20221;-61
2020/12/30 04:11:39;;;;;;;22.27;8.60;;;;;;;2.16;89.80;98988.38;5156213;27;20536;-60
2020/12/30 04:14:06;;;;;;;24.83;10.05;;;;;;;2.14;89.60;99002.72;5153427;27;20478;-60
2020/12/30 04:16:32;;;;;;;22.13;9.20;;;;;;;2.14;89.58;98989.97;5155632;27;20313;-61
2020/12/30 04:18:59;;;;;;;42.97;18.87;;;;;;;2.18;89.56;99001.19;5153705;27;20451;-60
2020/12/30 04:21:26;;;;;;;26.93;11.50;;;;;;;2.17;89.64;98996.91;5155373;27;20570;-61
2020/12/30 04:23:53;;;;;;;29.57;13.87;;;;;;;2.16;89.95;99003.63;5155623;27;20542;-60
2020/12/30 04:26:22;;;;;;;32.20;12.97;;;;;;;2.16;89.99;99000.25;5143059;27;20514;-60
2020/12/30 04:28:49;;;;;;;24.00;10.47;;;;;;;2.12;89.71;99014.50;5137220;27;20472;-61
2020/12/30 04:31:17;;;;;;;26.43;10.87;;;;;;;2.16;89.84;99010.41;5135252;27;20482;-62
2020/12/30 04:33:44;;;;;;;38.57;15.67;;;;;;;2.16;89.74;99018.91;5137352;27;20452;-59
2020/12/30 04:36:11;;;;;;;34.37;11.63;;;;;;;2.18;89.36;99015.56;5135305;27;20558;-61
2020/12/30 04:38:39;;;;;;;24.70;8.33;;;;;;;2.14;89.82;99014.53;5137325;27;20437;-61
2020/12/30 04:41:09;;;;;;;18.83;8.43;;;;;;;2.15;89.71;99021.38;5135525;27;20458;-60
2020/12/30 04:43:38;;;;;;;33.87;13.43;;;;;;;2.15;89.66;99027.34;5137041;27;20550;-60
2020/12/30 04:46:05;;;;;;;47.57;20.90;;;;;;;2.18;89.62;99024.09;5134683;27;20915;-61
2020/12/30 04:48:33;;;;;;;35.73;15.03;;;;;;;2.19;89.45;99023.28;5137162;27;20452;-59
2020/12/30 04:51:00;;;;;;;34.73;13.40;;;;;;;2.18;89.76;99020.66;5135374;27;20560;-60
2020/12/30 04:53:27;;;;;;;41.93;19.40;;;;;;;2.24;89.32;99029.47;5137103;27;20454;-60
2020/12/30 04:55:58;;;;;;;35.40;14.60;;;;;;;2.19;89.55;99023.28;5134860;27;20565;-61
2020/12/30 04:58:26;;;;;;;42.30;19.37;;;;;;;2.19;90.06;99030.06;5136960;27;20489;-61
2020/12/30 05:00:54;;;;;;;45.00;21.23;;;;;;;2.22;89.87;99025.97;5135189;28;20496;-61
2020/12/30 05:03:26;;;;;;;43.10;19.67;;;;;;;2.19;89.87;99028.38;5137021;28;20460;-61
2020/12/30 05:05:54;;;;;;;22.70;10.47;;;;;;;2.17;89.83;99032.53;5136523;27;20933;-60
2020/12/30 05:08:21;;;;;;;27.67;12.20;;;;;;;2.16;89.85;99025.69;5155476;27;20461;-61
2020/12/30 05:10:52;;;;;;;24.37;9.80;;;;;;;2.14;90.10;99029.81;5155785;27;20855;-61
2020/12/30 05:13:19;;;;;;;53.60;22.33;;;;;;;2.13;89.98;99025.53;5157585;27;20508;-61
2020/12/30 05:15:46;;;;;;;25.10;11.53;;;;;;;2.16;89.88;99028.25;5155204;27;20647;-60
2020/12/30 05:18:14;;;;;;;23.57;10.20;;;;;;;2.15;89.63;99027.34;5157707;27;20538;-62
2020/12/30 05:20:40;;;;;;;21.57;11.13;;;;;;;2.10;90.12;99033.88;5157389;27;20479;-61
2020/12/30 05:23:07;;;;;;;46.90;23.20;;;;;;;2.18;90.11;99030.84;5161534;27;20457;-61
2020/12/30 05:25:36;;;;;;;38.00;15.50;;;;;;;2.14;89.79;99037.44;5159693;27;20543;-60
2020/12/30 05:28:07;;;;;;;40.53;18.07;;;;;;;2.12;90.06;99036.50;5161709;27;20454;-60
2020/12/30 05:30:34;;;;;;;53.93;21.77;;;;;;;2.14;90.17;99040.00;5159643;27;20480;-60
2020/12/30 05:33:01;;;;;;;28.20;10.87;;;;;;;2.10;90.16;99045.75;5161694;27;20916;-60
2020/12/30 05:35:29;;;;;;;43.73;17.57;;;;;;;2.17;89.69;99047.78;5159182;27;20487;-60
2020/12/30 05:37:56;;;;;;;36.90;13.90;;;;;;;2.14;89.87;99042.53;5161515;27;20455;-61
2020/12/30 05:40:24;;;;;;;18.67;8.40;;;;;;;2.16;89.44;99048.59;5159723;27;20507;-61
2020/12/30 05:42:51;;;;;;;20.73;9.33;;;;;;;2.15;89.48;99051.91;5161087;27;20512;-59
2020/12/30 05:45:19;;;;;;;46.00;20.98;;;;;;;2.14;89.39;99050.16;5159259;27;20502;-60
2020/12/30 05:47:46;;;;;;;37.67;13.07;;;;;;;2.15;89.63;99052.78;5161054;27;20208;-61
2020/12/30 05:50:13;;;;;;;34.47;15.95;;;;;;;2.16;89.30;99054.53;5159282;27;20919;-60
2020/12/30 05:52:40;;;;;;;34.07;15.53;;;;;;;2.13;89.09;99050.97;5161256;27;20245;-60
2020/12/30 05:55:08;;;;;;;31.07;11.50;;;;;;;2.11;89.36;99055.97;5159033;27;20907;-61
2020/12/30 05:57:36;;;;;;;27.20;11.43;;;;;;;2.12;89.33;99056.88;5160988;27;20455;-61
2020/12/30 06:00:08;;;;;;;38.60;16.13;;;;;;;2.16;89.21;99068.94;5158963;27;20485;-60
2020/12/30 06:02:39;;;;;;;39.00;16.50;;;;;;;2.14;88.96;99062.91;5161013;27;20455;-62
2020/12/30 06:05:14;;;;;;;37.90;15.70;;;;;;;2.16;89.16;99064.72;5158781;27;20486;-60
2020/12/30 06:07:42;;;;;;;36.27;13.90;;;;;;;2.16;88.95;99074.03;5160583;27;20544;-61
2020/12/30 06:10:10;;;;;;;26.87;11.70;;;;;;;2.16;89.09;99076.59;5159162;27;20566;-60
2020/12/30 06:12:49;;;;;;;44.77;19.70;;;;;;;2.16;88.76;99074.91;5160606;27;20888;-60
2020/12/30 06:15:17;;;;;;;42.50;19.63;;;;;;;2.16;88.57;99074.91;5158702;27;20777;-61
2020/12/30 06:17:58;;;;;;;27.00;9.33;;;;;;;2.16;88.46;99082.53;5160149;27;20899;-61
2020/12/30 06:20:30;;;;;;;29.20;11.10;;;;;;;2.09;88.25;99093.22;5158552;27;20565;-61
2020/12/30 06:23:00;;;;;;;27.37;11.67;;;;;;;2.11;88.53;99088.22;5160523;27;20455;-59
2020/12/30 06:25:28;;;;;;;35.30;17.20;;;;;;;2.15;88.71;99083.34;5158174;27;20768;-61
2020/12/30 06:27:55;;;;;;;28.60;13.53;;;;;;;2.11;88.66;99090.75;5160146;27;20426;-61
2020/12/30 06:30:23;;;;;;;25.67;11.80;;;;;;;2.14;88.07;99090.88;5158647;27;20471;-60
2020/12/30 06:32:50;;;;;;;29.73;11.60;;;;;;;2.12;88.18;99098.47;5160161;27;20448;-61
2020/12/30 06:35:27;;;;;;;20.57;7.10;;;;;;;2.14;87.91;99094.31;5158154;27;20477;-61
2020/12/30 06:37:54;;;;;;;38.10;17.10;;;;;;;2.16;88.26;99095.25;5160046;27;20741;-60
2020/12/30 06:40:26;;;;;;;37.75;16.65;;;;;;;2.15;88.03;99096.06;5158640;27;20841;-61
2020/12/30 06:42:57;;;;;;;28.13;13.40;;;;;;;2.14;87.93;99101.06;5160283;27;20203;-59
2020/12/30 06:45:50;;;;;;;25.40;11.87;;;;;;;2.14;87.53;99101.94;5158017;27;20499;-61
2020/12/30 06:48:18;;;;;;;20.30;9.33;;;;;;;2.19;87.68;99108.94;5160127;27;20461;-61
2020/12/30 06:50:44;;;;;;;18.70;10.03;;;;;;;2.19;87.57;99104.72;5158338;27;20541;-60
2020/12/30 06:53:28;;;;;;;17.10;7.13;;;;;;;2.20;87.30;99119.19;5159834;27;20455;-61
2020/12/30 06:55:56;;;;;;;23.80;10.80;;;;;;;2.15;87.40;99123.16;5157781;27;20480;-60
2020/12/30 06:58:48;;;;;;;23.47;9.23;;;;;;;2.17;87.73;99121.59;5159905;27;20536;-61
2020/12/30 07:01:19;;;;;;;23.92;10.68;;;;;;;2.17;87.51;99121.59;5157870;27;20480;-61
2020/12/30 07:03:47;;;;;;;41.50;18.63;;;;;;;2.17;87.53;99121.59;5159719;27;20289;-60
2020/12/30 07:06:35;;;;;;;24.87;8.10;;;;;;;2.16;87.20;99125.78;5157112;27;20495;-60
2020/12/30 07:09:04;;;;;;;21.37;9.37;;;;;;;2.13;87.51;99145.13;5158246;27;20451;-60
2020/12/30 07:11:40;;;;;;;24.97;9.70;;;;;;;2.12;86.99;99138.28;5159358;27;20553;-60
2020/12/30 07:14:07;;;;;;;27.33;12.87;;;;;;;2.10;87.19;99140.75;5157743;27;20820;-61
2020/12/30 07:16:34;;;;;;;30.15;13.52;;;;;;;2.11;87.19;99141.66;5159475;27;20493;-61
2020/12/30 07:19:01;;;;;;;23.27;8.60;;;;;;;2.10;87.48;99150.94;5157903;27;20550;-61
2020/12/30 07:21:28;;;;;;;40.30;18.23;;;;;;;2.15;87.07;99146.06;5159402;27;20487;-60
2020/12/30 07:23:57;;;;;;;31.17;14.10;;;;;;;2.10;87.58;99160.25;5159120;27;20505;-60
2020/12/30 07:26:23;;;;;;;22.90;11.20;;;;;;;2.13;87.11;99162.94;5158640;27;20460;-61
2020/12/30 07:28:51;;;;;;;35.30;15.68;;;;;;;2.12;87.13;99163.75;5159326;27;20430;-62
2020/12/30 07:31:19;;;;;;;30.92;11.93;;;;;;;2.09;86.76;99163.56;5148687;27;20257;-61
2020/12/30 07:33:46;;;;;;;24.43;11.00;;;;;;;2.15;87.06;99171.50;5159016;27;20288;-61
2020/12/30 07:36:13;;;;;;;33.00;16.60;;;;;;;2.14;87.06;99167.22;5157038;27;20483;-60
2020/12/30 07:38:39;;;;;;;26.07;11.77;;;;;;;2.12;87.28;99168.84;5159006;27;20829;-61
2020/12/30 07:41:08;;;;;;;39.73;19.20;;;;;;;2.09;87.19;99174.63;5156926;27;20469;-61
2020/12/30 07:43:45;;;;;;;23.70;12.47;;;;;;;2.11;87.27;99179.81;5157874;27;20460;-59
2020/12/30 07:46:15;;;;;;;31.10;13.70;;;;;;;2.12;87.08;99189.19;5156890;27;20486;-61
2020/12/30 07:48:42;;;;;;;21.73;9.97;;;;;;;2.09;87.59;99189.03;5158910;27;20462;-61
2020/12/30 07:51:08;;;;;;;40.13;18.13;;;;;;;2.05;87.70;99189.69;5156981;27;20494;-60
2020/12/30 07:53:35;;;;;;;16.77;8.13;;;;;;;2.05;87.81;99187.13;5158563;27;20459;-61
2020/12/30 07:56:02;;;;;;;15.53;7.43;;;;;;;2.02;87.38;99188.72;5156780;27;20518;-61
2020/12/30 07:58:29;;;;;;;15.80;8.40;;;;;;;2.02;87.64;99192.94;5158753;27;20541;-60
2020/12/30 08:00:56;;;;;;;24.67;10.10;;;;;;;2.04;87.58;99195.56;5157206;27;20475;-61
2020/12/30 08:03:23;;;;;;;34.93;15.10;;;;;;;2.10;87.60;99196.75;5158548;27;20457;-60
2020/12/30 08:05:50;;;;;;;34.30;16.90;;;;;;;2.06;87.78;99206.69;5156176;27;20479;-61
2020/12/30 08:08:18;;;;;;;22.63;9.50;;;;;;;1.99;87.51;99211.47;5157631;27;20466;-61
2020/12/30 08:10:45;;;;;;;27.20;12.77;;;;;;;2.05;87.57;99212.56;5156610;27;20522;-61
2020/12/30 08:13:12;;;;;;;20.87;9.70;;;;;;;2.04;87.33;99216.78;5158437;27;20430;-61
2020/12/30 08:15:49;;;;;;;26.67;12.90;;;;;;;2.02;87.31;99216.69;5156169;27;20575;-61
2020/12/30 08:18:16;;;;;;;43.33;15.60;;;;;;;1.98;87.86;99217.34;5158020;27;20459;-61
2020/12/30 08:20:44;;;;;;;34.70;16.40;;;;;;;2.02;87.73;99221.78;5156446;27;20480;-60
2020/12/30 08:23:10;;;;;;;39.03;19.33;;;;;;;2.02;87.76;99224.31;5158094;27;20455;-61
2020/12/30 08:25:37;;;;;;;22.23;9.20;;;;;;;1.98;87.78;99231.72;5155426;27;20563;-61
2020/12/30 08:28:05;;;;;;;19.20;10.57;;;;;;;2.02;87.33;99229.41;5156643;27;20503;-59
2020/12/30 08:30:34;;;;;;;19.90;7.23;;;;;;;1.98;87.16;99232.63;5155668;27;20476;-60
2020/12/30 08:33:05;;;;;;;15.90;7.20;;;;;;;1.96;87.45;99231.69;5157692;27;20455;-59
2020/12/30 08:35:38;;;;;;;33.30;15.30;;;;;;;1.98;87.35;99230.06;5155434;27;20491;-61
2020/12/30 08:38:11;;;;;;;29.90;15.43;;;;;;;2.00;87.44;99231.00;5157651;27;20463;-61
2020/12/30 08:40:39;;;;;;;30.20;11.53;;;;;;;1.95;87.27;99232.44;5156168;27;20476;-61
2020/12/30 08:43:29;;;;;;;26.58;11.07;;;;;;;1.96;87.55;99233.34;5157625;27;20428;-58
2020/12/30 08:46:04;;;;;;;32.27;14.60;;;;;;;1.97;87.79;99241.06;5155348;27;20232;-60
2020/12/30 08:48:34;;;;;;;24.40;9.83;;;;;;;1.97;87.51;99241.06;5157633;27;20513;-61
2020/12/30 08:51:00;;;;;;;25.70;10.80;;;;;;;2.06;87.78;99244.84;5156105;27;20489;-56
2020/12/30 08:53:38;;;;;;;37.23;17.17;;;;;;;2.08;87.45;99248.34;5157548;27;20459;-54
2020/12/30 08:56:06;;;;;;;28.30;11.87;;;;;;;2.00;87.62;99259.00;5155465;27;20480;-57
2020/12/30 08:58:33;;;;;;;28.30;12.70;;;;;;;2.05;87.75;99253.28;5158035;27;20519;-57
2020/12/30 09:01:00;;;;;;;27.40;12.93;;;;;;;2.00;87.79;99259.00;5155685;27;20579;-51
2020/12/30 09:03:28;;;;;;;22.90;9.70;;;;;;;1.95;88.30;99265.50;5157109;27;20710;-59
2020/12/30 09:05:55;;;;;;;18.40;9.93;;;;;;;1.97;88.21;99258.84;5155188;27;20980;-55
2020/12/30 09:08:23;;;;;;;25.03;12.13;;;;;;;1.99;88.09;99266.56;5157044;27;20494;-53
2020/12/30 09:10:51;;;;;;;25.00;10.70;;;;;;;1.93;88.15;99267.13;5155790;27;20454;-59
2020/12/30 09:13:19;;;;;;;38.23;13.83;;;;;;;1.96;87.96;99269.84;5157616;27;20480;-54
2020/12/30 09:15:54;;;;;;;42.03;20.10;;;;;;;1.93;88.54;99269.66;5155357;27;20530;-60
2020/12/30 09:18:21;;;;;;;30.97;11.50;;;;;;;1.80;88.85;99270.66;5157405;27;20542;-54
2020/12/30 09:20:48;;;;;;;36.47;11.70;;;;;;;1.88;88.68;99277.06;5155690;27;20835;-60
2020/12/30 09:23:15;;;;;;;30.07;13.27;;;;;;;1.75;88.90;99272.97;5157339;27;20425;-56
2020/12/30 09:25:45;;;;;;;43.07;20.50;;;;;;;1.70;88.95;99276.06;5155291;27;20441;-56
2020/12/30 09:28:16;;;;;;;26.70;10.93;;;;;;;1.79;89.07;99280.78;5157285;27;20434;-60
2020/12/30 09:30:44;;;;;;;42.70;13.47;;;;;;;1.79;88.61;99278.25;5155457;27;20468;-58
2020/12/30 09:33:11;;;;;;;36.92;15.25;;;;;;;1.68;88.24;99285.28;5157198;27;20546;-58
2020/12/30 09:35:38;;;;;;;31.07;13.43;;;;;;;1.71;88.07;99273.63;5154892;27;20539;-55
2020/12/30 09:38:05;;;;;;;44.63;19.57;;;;;;;1.71;88.31;99278.72;5157214;27;20550;-60
2020/12/30 09:40:39;;;;;;;30.35;11.65;;;;;;;1.65;88.17;99288.56;5155174;27;20502;-61
2020/12/30 09:43:12;;;;;;;24.63;11.17;;;;;;;1.59;87.88;99283.13;5157182;27;20492;-61
2020/12/30 09:45:39;;;;;;;26.77;11.10;;;;;;;1.57;88.11;99284.69;5154996;27;20472;-60
2020/12/30 09:48:13;;;;;;;40.92;13.13;;;;;;;1.63;88.55;99295.19;5156853;27;20847;-59
2020/12/30 09:50:40;;;;;;;26.27;9.87;;;;;;;1.61;88.00;99291.72;5155328;27;20233;-60
2020/12/30 09:53:07;;;;;;;25.27;11.27;;;;;;;1.56;88.57;99293.13;5156947;27;20884;-60
2020/12/30 09:55:33;;;;;;;21.43;9.50;;;;;;;1.63;88.56;99294.34;5155128;27;20567;-60
2020/12/30 09:58:00;;;;;;;40.40;18.33;;;;;;;1.74;88.41;99293.22;5157147;27;20491;-59
2020/12/30 10:00:27;;;;;;;39.00;17.08;;;;;;;1.68;88.38;99283.63;5155008;27;20642;-60
2020/12/30 10:02:55;;;;;;;49.60;22.13;;;;;;;1.71;87.97;99291.44;5156831;27;20237;-60
2020/12/30 10:05:21;;;;;;;49.17;21.30;;;;;;;1.68;88.20;99292.91;5154626;27;20453;-60
2020/12/30 10:07:49;;;;;;;48.93;22.40;;;;;;;1.70;88.32;99297.28;5160022;27;20451;-59
2020/12/30 10:10:16;;;;;;;41.47;15.03;;;;;;;1.60;88.48;99303.53;5158657;27;20487;-59
2020/12/30 10:12:46;;;;;;;32.25;13.38;;;;;;;1.59;88.39;99293.31;5160163;27;20486;-61
2020/12/30 10:15:13;;;;;;;27.00;11.27;;;;;;;1.56;88.67;99299.09;5158270;27;20261;-60
2020/12/30 10:17:40;;;;;;;32.10;12.27;;;;;;;1.67;88.84;99312.38;5160429;27;20488;-61
2020/12/30 10:20:08;;;;;;;38.13;17.40;;;;;;;1.68;88.33;99303.97;5158534;27;20917;-60
2020/12/30 10:22:35;;;;;;;23.47;10.00;;;;;;;1.64;88.46;99314.75;5160336;27;20436;-60
2020/12/30 10:25:03;;;;;;;23.67;9.23;;;;;;;1.66;88.49;99313.19;5158289;27;20475;-61
2020/12/30 10:27:30;;;;;;;27.60;11.43;;;;;;;1.61;88.53;99324.75;5160164;27;20468;-60
2020/12/30 10:29:57;;;;;;;34.30;13.47;;;;;;;1.63;88.69;99320.63;5158212;27;20461;-60
2020/12/30 10:32:23;;;;;;;52.17;22.40;;;;;;;1.64;88.92;99312.19;5160325;27;20761;-59
2020/12/30 10:34:50;;;;;;;34.65;13.77;;;;;;;1.66;88.77;99314.84;5157714;27;20542;-61
2020/12/30 10:37:17;;;;;;;35.87;12.57;;;;;;;1.66;88.77;99320.81;5160089;27;20199;-61
2020/12/30 10:39:45;;;;;;;43.25;19.50;;;;;;;1.68;88.98;99313.25;5158124;27;20541;-60
2020/12/30 10:42:11;;;;;;;26.10;11.38;;;;;;;1.71;88.77;99318.50;5159876;27;20284;-60
2020/12/30 10:44:38;;;;;;;32.77;14.40;;;;;;;1.70;88.69;99325.25;5157924;27;20361;-59
2020/12/30 10:47:05;;;;;;;32.57;13.10;;;;;;;1.68;88.67;99316.66;5159805;27;20554;-61
2020/12/30 10:49:31;;;;;;;35.30;16.35;;;;;;;1.69;88.43;99320.09;5158224;27;20550;-60
2020/12/30 10:51:58;;;;;;;36.25;15.82;;;;;;;1.72;88.60;99323.69;5159661;27;20203;-60
2020/12/30 10:54:25;;;;;;;16.90;8.02;;;;;;;1.64;88.78;99326.59;5157796;27;20230;-61
2020/12/30 10:56:54;;;;;;;31.85;13.63;;;;;;;1.60;89.03;99331.50;5159479;27;20268;-60
2020/12/30 10:59:21;;;;;;;20.27;7.80;;;;;;;1.61;89.08;99329.84;5157867;27;20247;-60
2020/12/30 11:01:49;;;;;;;39.38;15.23;;;;;;;1.65;89.03;99329.22;5158878;27;20445;-59
2020/12/30 11:04:16;;;;;;;38.90;16.80;;;;;;;1.67;88.85;99317.47;5157428;27;20234;-59
2020/12/30 11:06:43;;;;;;;44.10;20.75;;;;;;;1.69;88.98;99326.03;5159750;27;20222;-60
2020/12/30 11:09:10;;;;;;;45.45;20.20;;;;;;;1.77;88.82;99325.59;5157787;27;20202;-62
2020/12/30 11:11:38;;;;;;;49.05;18.58;;;;;;;1.74;88.76;99324.63;5159518;27;20559;-61
2020/12/30 11:14:04;;;;;;;35.78;15.73;;;;;;;1.85;88.94;99327.75;5157505;27;20205;-59
2020/12/30 11:16:31;;;;;;;45.58;21.23;;;;;;;1.82;88.46;99321.63;5159162;27;20654;-59
2020/12/30 11:18:58;;;;;;;40.17;11.97;;;;;;;1.80;88.79;99333.41;5156430;27;20508;-60
2020/12/30 11:21:24;;;;;;;36.90;16.67;;;;;;;1.79;88.89;99321.47;5158982;27;20789;-58
2020/12/30 11:23:51;;;;;;;29.87;13.00;;;;;;;1.88;88.59;99321.94;5158841;27;20491;-58
2020/12/30 11:26:18;;;;;;;17.37;8.13;;;;;;;1.90;88.64;99320.38;5156937;27;20928;-58
2020/12/30 11:28:45;;;;;;;38.50;16.10;;;;;;;1.91;88.50;99322.13;5158164;27;20461;-59
2020/12/30 11:31:13;;;;;;;23.60;11.87;;;;;;;1.83;88.46;99321.72;5156074;27;20788;-59